sensor_id;sensor_type;location;lat;lon;timestamp;P1;durP1;ratioP1;P2;durP2;ratioP2
59294;SDS011;45067;44.654;20.200;2023-07-02T00:00:04;12.07;;;7.07;;
59294;SDS011;45067;44.654;20.200;2023-07-02T00:05:53;13.20;;;7.53;;
59294;SDS011;45067;44.654;20.200;2023-07-02T00:08:19;12.98;;;8.15;;
59294;SDS011;45067;44.654;20.200;2023-07-02T00:10:45;15.65;;;7.88;;
59294;SDS011;45067;44.654;20.200;2023-07-02T00:13:12;12.82;;;7.65;;
59294;SDS011;45067;44.654;20.200;2023-07-02T00:15:38;11.32;;;7.45;;
59294;SDS011;45067;44.654;20.200;2023-07-02T00:18:04;10.70;;;6.97;;
59294;SDS011;45067;44.654;20.200;2023-07-02T00:20:30;13.10;;;7.70;;
59294;SDS011;45067;44.654;20.200;2023-07-02T00:23:00;10.48;;;6.97;;
59294;SDS011;45067;44.654;20.200;2023-07-02T00:25:26;11.73;;;7.15;;
59294;SDS011;45067;44.654;20.200;2023-07-02T00:27:52;14.18;;;7.35;;
59294;SDS011;45067;44.654;20.200;2023-07-02T00:30:18;13.30;;;7.28;;
59294;SDS011;45067;44.654;20.200;2023-07-02T00:32:44;9.40;;;6.70;;
59294;SDS011;45067;44.654;20.200;2023-07-02T00:35:10;9.18;;;6.63;;
59294;SDS011;45067;44.654;20.200;2023-07-02T00:37:36;12.32;;;7.32;;
59294;SDS011;45067;44.654;20.200;2023-07-02T00:40:03;12.90;;;6.93;;
59294;SDS011;45067;44.654;20.200;2023-07-02T00:42:29;9.88;;;6.35;;
59294;SDS011;45067;44.654;20.200;2023-07-02T00:44:55;11.60;;;7.47;;
59294;SDS011;45067;44.654;20.200;2023-07-02T00:50:31;9.68;;;6.63;;
59294;SDS011;45067;44.654;20.200;2023-07-02T00:52:57;13.60;;;7.70;;
59294;SDS011;45067;44.654;20.200;2023-07-02T00:55:24;11.88;;;7.38;;
59294;SDS011;45067;44.654;20.200;2023-07-02T00:57:50;10.50;;;6.85;;
59294;SDS011;45067;44.654;20.200;2023-07-02T01:00:16;11.18;;;7.25;;
59294;SDS011;45067;44.654;20.200;2023-07-02T01:05:46;13.93;;;7.50;;
59294;SDS011;45067;44.654;20.200;2023-07-02T01:08:12;11.77;;;7.80;;
59294;SDS011;45067;44.654;20.200;2023-07-02T01:10:39;10.70;;;7.18;;
59294;SDS011;45067;44.654;20.200;2023-07-02T01:13:12;12.15;;;7.57;;
59294;SDS011;45067;44.654;20.200;2023-07-02T01:15:40;10.90;;;7.18;;
59294;SDS011;45067;44.654;20.200;2023-07-02T01:18:07;11.52;;;7.40;;
59294;SDS011;45067;44.654;20.200;2023-07-02T01:20:34;13.13;;;7.15;;
59294;SDS011;45067;44.654;20.200;2023-07-02T01:23:00;14.45;;;7.13;;
59294;SDS011;45067;44.654;20.200;2023-07-02T01:25:27;11.82;;;7.00;;
59294;SDS011;45067;44.654;20.200;2023-07-02T01:27:53;12.70;;;7.22;;
59294;SDS011;45067;44.654;20.200;2023-07-02T01:30:20;12.27;;;7.35;;
59294;SDS011;45067;44.654;20.200;2023-07-02T01:35:50;11.40;;;7.28;;
59294;SDS011;45067;44.654;20.200;2023-07-02T01:38:16;12.65;;;7.38;;
59294;SDS011;45067;44.654;20.200;2023-07-02T01:40:42;13.45;;;7.97;;
59294;SDS011;45067;44.654;20.200;2023-07-02T01:43:08;12.30;;;7.00;;
59294;SDS011;45067;44.654;20.200;2023-07-02T01:45:37;11.30;;;7.53;;
59294;SDS011;45067;44.654;20.200;2023-07-02T01:51:07;13.98;;;7.60;;
59294;SDS011;45067;44.654;20.200;2023-07-02T01:53:33;13.80;;;7.95;;
59294;SDS011;45067;44.654;20.200;2023-07-02T01:55:59;14.23;;;8.35;;
59294;SDS011;45067;44.654;20.200;2023-07-02T01:58:25;19.42;;;8.32;;
59294;SDS011;45067;44.654;20.200;2023-07-02T02:00:51;12.23;;;7.72;;
59294;SDS011;45067;44.654;20.200;2023-07-02T02:03:17;11.80;;;7.40;;
59294;SDS011;45067;44.654;20.200;2023-07-02T02:05:43;12.73;;;7.90;;
59294;SDS011;45067;44.654;20.200;2023-07-02T02:08:10;13.82;;;7.85;;
59294;SDS011;45067;44.654;20.200;2023-07-02T02:10:36;15.05;;;8.20;;
59294;SDS011;45067;44.654;20.200;2023-07-02T02:13:02;13.10;;;8.07;;
59294;SDS011;45067;44.654;20.200;2023-07-02T02:15:28;16.38;;;8.88;;
59294;SDS011;45067;44.654;20.200;2023-07-02T02:20:57;14.40;;;8.05;;
59294;SDS011;45067;44.654;20.200;2023-07-02T02:23:23;12.85;;;8.15;;
59294;SDS011;45067;44.654;20.200;2023-07-02T02:25:49;14.25;;;8.73;;
59294;SDS011;45067;44.654;20.200;2023-07-02T02:28:15;16.30;;;9.23;;
59294;SDS011;45067;44.654;20.200;2023-07-02T02:30:42;12.73;;;8.23;;
59294;SDS011;45067;44.654;20.200;2023-07-02T02:36:11;14.50;;;8.65;;
59294;SDS011;45067;44.654;20.200;2023-07-02T02:38:37;13.82;;;8.13;;
59294;SDS011;45067;44.654;20.200;2023-07-02T02:41:03;14.77;;;8.57;;
59294;SDS011;45067;44.654;20.200;2023-07-02T02:43:30;16.58;;;8.20;;
59294;SDS011;45067;44.654;20.200;2023-07-02T02:45:56;13.18;;;8.20;;
59294;SDS011;45067;44.654;20.200;2023-07-02T02:51:26;13.48;;;8.27;;
59294;SDS011;45067;44.654;20.200;2023-07-02T02:53:52;13.43;;;8.40;;
59294;SDS011;45067;44.654;20.200;2023-07-02T02:56:18;15.27;;;8.85;;
59294;SDS011;45067;44.654;20.200;2023-07-02T02:58:44;14.85;;;8.90;;
59294;SDS011;45067;44.654;20.200;2023-07-02T03:01:10;15.48;;;8.50;;
59294;SDS011;45067;44.654;20.200;2023-07-02T03:03:38;12.95;;;8.50;;
59294;SDS011;45067;44.654;20.200;2023-07-02T03:06:05;14.43;;;8.88;;
59294;SDS011;45067;44.654;20.200;2023-07-02T03:08:31;12.30;;;8.90;;
59294;SDS011;45067;44.654;20.200;2023-07-02T03:10:58;14.40;;;9.32;;
59294;SDS011;45067;44.654;20.200;2023-07-02T03:13:24;13.10;;;8.70;;
59294;SDS011;45067;44.654;20.200;2023-07-02T03:15:50;17.08;;;8.63;;
59294;SDS011;45067;44.654;20.200;2023-07-02T03:21:19;14.18;;;7.97;;
59294;SDS011;45067;44.654;20.200;2023-07-02T03:23:45;15.18;;;8.43;;
59294;SDS011;45067;44.654;20.200;2023-07-02T03:26:12;15.35;;;8.43;;
59294;SDS011;45067;44.654;20.200;2023-07-02T03:28:38;13.95;;;8.30;;
59294;SDS011;45067;44.654;20.200;2023-07-02T03:31:04;12.40;;;8.55;;
59294;SDS011;45067;44.654;20.200;2023-07-02T03:36:33;13.43;;;8.50;;
59294;SDS011;45067;44.654;20.200;2023-07-02T03:38:59;17.90;;;9.07;;
59294;SDS011;45067;44.654;20.200;2023-07-02T03:41:26;13.80;;;8.27;;
59294;SDS011;45067;44.654;20.200;2023-07-02T03:43:52;10.98;;;7.72;;
59294;SDS011;45067;44.654;20.200;2023-07-02T03:46:18;13.57;;;8.70;;
59294;SDS011;45067;44.654;20.200;2023-07-02T03:51:47;13.95;;;8.40;;
59294;SDS011;45067;44.654;20.200;2023-07-02T03:54:14;13.55;;;8.05;;
59294;SDS011;45067;44.654;20.200;2023-07-02T03:56:40;15.05;;;8.43;;
59294;SDS011;45067;44.654;20.200;2023-07-02T03:59:06;17.23;;;9.35;;
59294;SDS011;45067;44.654;20.200;2023-07-02T04:01:32;12.05;;;7.78;;
59294;SDS011;45067;44.654;20.200;2023-07-02T04:03:58;14.27;;;8.55;;
59294;SDS011;45067;44.654;20.200;2023-07-02T04:06:24;15.43;;;8.63;;
59294;SDS011;45067;44.654;20.200;2023-07-02T04:08:50;11.25;;;7.78;;
59294;SDS011;45067;44.654;20.200;2023-07-02T04:11:17;10.10;;;7.25;;
59294;SDS011;45067;44.654;20.200;2023-07-02T04:13:43;12.40;;;6.93;;
59294;SDS011;45067;44.654;20.200;2023-07-02T04:16:09;11.50;;;7.57;;
59294;SDS011;45067;44.654;20.200;2023-07-02T04:21:38;11.95;;;7.13;;
59294;SDS011;45067;44.654;20.200;2023-07-02T04:24:04;13.18;;;7.75;;
59294;SDS011;45067;44.654;20.200;2023-07-02T04:26:31;12.60;;;7.65;;
59294;SDS011;45067;44.654;20.200;2023-07-02T04:28:57;10.27;;;7.05;;
59294;SDS011;45067;44.654;20.200;2023-07-02T04:31:24;15.00;;;7.85;;
59294;SDS011;45067;44.654;20.200;2023-07-02T04:36:54;11.13;;;7.18;;
59294;SDS011;45067;44.654;20.200;2023-07-02T04:39:20;12.77;;;7.53;;
59294;SDS011;45067;44.654;20.200;2023-07-02T04:41:46;10.20;;;7.32;;
59294;SDS011;45067;44.654;20.200;2023-07-02T04:44:17;15.35;;;7.50;;
59294;SDS011;45067;44.654;20.200;2023-07-02T04:46:43;13.50;;;6.75;;
59294;SDS011;45067;44.654;20.200;2023-07-02T04:49:09;11.57;;;7.40;;
59294;SDS011;45067;44.654;20.200;2023-07-02T04:51:35;10.60;;;7.47;;
59294;SDS011;45067;44.654;20.200;2023-07-02T04:54:02;12.48;;;7.10;;
59294;SDS011;45067;44.654;20.200;2023-07-02T04:56:28;13.68;;;7.55;;
59294;SDS011;45067;44.654;20.200;2023-07-02T04:58:54;11.82;;;8.35;;
59294;SDS011;45067;44.654;20.200;2023-07-02T05:01:20;10.90;;;7.22;;
59294;SDS011;45067;44.654;20.200;2023-07-02T05:06:49;11.43;;;7.30;;
59294;SDS011;45067;44.654;20.200;2023-07-02T05:09:15;11.35;;;7.22;;
59294;SDS011;45067;44.654;20.200;2023-07-02T05:11:42;13.57;;;7.85;;
59294;SDS011;45067;44.654;20.200;2023-07-02T05:14:08;10.57;;;7.20;;
59294;SDS011;45067;44.654;20.200;2023-07-02T05:16:34;10.30;;;6.90;;
59294;SDS011;45067;44.654;20.200;2023-07-02T05:22:03;12.85;;;6.95;;
59294;SDS011;45067;44.654;20.200;2023-07-02T05:24:29;11.20;;;7.30;;
59294;SDS011;45067;44.654;20.200;2023-07-02T05:26:55;12.68;;;8.00;;
59294;SDS011;45067;44.654;20.200;2023-07-02T05:29:21;11.95;;;7.50;;
59294;SDS011;45067;44.654;20.200;2023-07-02T05:31:47;10.40;;;7.03;;
59294;SDS011;45067;44.654;20.200;2023-07-02T05:37:17;11.27;;;6.95;;
59294;SDS011;45067;44.654;20.200;2023-07-02T05:39:43;10.75;;;7.13;;
59294;SDS011;45067;44.654;20.200;2023-07-02T05:42:09;11.82;;;7.38;;
59294;SDS011;45067;44.654;20.200;2023-07-02T05:44:35;11.98;;;7.60;;
59294;SDS011;45067;44.654;20.200;2023-07-02T05:47:01;10.50;;;6.57;;
59294;SDS011;45067;44.654;20.200;2023-07-02T05:49:28;11.15;;;6.88;;
59294;SDS011;45067;44.654;20.200;2023-07-02T05:51:54;10.32;;;7.18;;
59294;SDS011;45067;44.654;20.200;2023-07-02T05:54:20;11.00;;;6.90;;
59294;SDS011;45067;44.654;20.200;2023-07-02T05:56:46;11.02;;;7.20;;
59294;SDS011;45067;44.654;20.200;2023-07-02T05:59:12;11.80;;;7.38;;
59294;SDS011;45067;44.654;20.200;2023-07-02T06:01:44;12.15;;;7.15;;
59294;SDS011;45067;44.654;20.200;2023-07-02T06:07:13;13.13;;;6.63;;
59294;SDS011;45067;44.654;20.200;2023-07-02T06:09:40;11.50;;;8.02;;
59294;SDS011;45067;44.654;20.200;2023-07-02T06:12:06;13.15;;;7.95;;
59294;SDS011;45067;44.654;20.200;2023-07-02T06:14:32;11.70;;;7.68;;
59294;SDS011;45067;44.654;20.200;2023-07-02T06:16:58;11.52;;;6.88;;
59294;SDS011;45067;44.654;20.200;2023-07-02T06:22:29;10.65;;;7.30;;
59294;SDS011;45067;44.654;20.200;2023-07-02T06:24:55;12.38;;;6.85;;
59294;SDS011;45067;44.654;20.200;2023-07-02T06:27:21;9.60;;;6.85;;
59294;SDS011;45067;44.654;20.200;2023-07-02T06:29:47;9.25;;;6.63;;
59294;SDS011;45067;44.654;20.200;2023-07-02T06:32:14;8.60;;;6.22;;
59294;SDS011;45067;44.654;20.200;2023-07-02T06:34:40;9.50;;;6.47;;
59294;SDS011;45067;44.654;20.200;2023-07-02T06:37:06;11.88;;;5.95;;
59294;SDS011;45067;44.654;20.200;2023-07-02T06:39:33;9.93;;;6.97;;
59294;SDS011;45067;44.654;20.200;2023-07-02T06:41:59;10.00;;;6.68;;
59294;SDS011;45067;44.654;20.200;2023-07-02T06:44:25;9.48;;;6.25;;
59294;SDS011;45067;44.654;20.200;2023-07-02T06:46:51;8.57;;;5.90;;
59294;SDS011;45067;44.654;20.200;2023-07-02T06:52:20;10.13;;;6.45;;
59294;SDS011;45067;44.654;20.200;2023-07-02T06:54:46;10.95;;;6.43;;
59294;SDS011;45067;44.654;20.200;2023-07-02T06:57:12;10.43;;;6.00;;
59294;SDS011;45067;44.654;20.200;2023-07-02T06:59:39;11.07;;;6.50;;
59294;SDS011;45067;44.654;20.200;2023-07-02T07:02:05;9.02;;;6.18;;
59294;SDS011;45067;44.654;20.200;2023-07-02T07:07:35;9.88;;;6.40;;
59294;SDS011;45067;44.654;20.200;2023-07-02T07:10:01;8.82;;;6.30;;
59294;SDS011;45067;44.654;20.200;2023-07-02T07:12:28;8.57;;;5.80;;
59294;SDS011;45067;44.654;20.200;2023-07-02T07:14:55;8.30;;;5.80;;
59294;SDS011;45067;44.654;20.200;2023-07-02T07:17:21;9.13;;;5.85;;
59294;SDS011;45067;44.654;20.200;2023-07-02T07:22:50;9.27;;;6.30;;
59294;SDS011;45067;44.654;20.200;2023-07-02T07:25:16;8.98;;;6.40;;
59294;SDS011;45067;44.654;20.200;2023-07-02T07:27:42;14.25;;;6.90;;
59294;SDS011;45067;44.654;20.200;2023-07-02T07:30:08;8.43;;;6.28;;
59294;SDS011;45067;44.654;20.200;2023-07-02T07:32:35;8.57;;;5.70;;
59294;SDS011;45067;44.654;20.200;2023-07-02T07:35:01;8.57;;;6.00;;
59294;SDS011;45067;44.654;20.200;2023-07-02T07:37:27;8.35;;;6.00;;
59294;SDS011;45067;44.654;20.200;2023-07-02T07:39:53;8.85;;;5.50;;
59294;SDS011;45067;44.654;20.200;2023-07-02T07:42:19;9.18;;;6.00;;
59294;SDS011;45067;44.654;20.200;2023-07-02T07:44:45;9.18;;;6.32;;
59294;SDS011;45067;44.654;20.200;2023-07-02T07:47:12;8.98;;;6.47;;
59294;SDS011;45067;44.654;20.200;2023-07-02T07:52:42;10.68;;;6.13;;
59294;SDS011;45067;44.654;20.200;2023-07-02T07:55:09;11.10;;;6.40;;
59294;SDS011;45067;44.654;20.200;2023-07-02T07:57:36;9.02;;;6.38;;
59294;SDS011;45067;44.654;20.200;2023-07-02T08:00:03;8.23;;;6.57;;
59294;SDS011;45067;44.654;20.200;2023-07-02T08:02:32;9.73;;;6.25;;
59294;SDS011;45067;44.654;20.200;2023-07-02T08:08:01;12.77;;;6.40;;
59294;SDS011;45067;44.654;20.200;2023-07-02T08:10:27;8.20;;;6.10;;
59294;SDS011;45067;44.654;20.200;2023-07-02T08:12:53;9.90;;;5.80;;
59294;SDS011;45067;44.654;20.200;2023-07-02T08:15:19;8.63;;;6.30;;
59294;SDS011;45067;44.654;20.200;2023-07-02T08:17:46;8.73;;;6.30;;
59294;SDS011;45067;44.654;20.200;2023-07-02T08:20:12;9.65;;;6.53;;
59294;SDS011;45067;44.654;20.200;2023-07-02T08:22:38;9.85;;;6.30;;
59294;SDS011;45067;44.654;20.200;2023-07-02T08:25:05;11.77;;;7.70;;
59294;SDS011;45067;44.654;20.200;2023-07-02T08:27:31;9.13;;;6.40;;
59294;SDS011;45067;44.654;20.200;2023-07-02T08:29:57;10.38;;;7.03;;
59294;SDS011;45067;44.654;20.200;2023-07-02T08:32:23;9.77;;;7.13;;
59294;SDS011;45067;44.654;20.200;2023-07-02T08:37:53;11.40;;;7.55;;
59294;SDS011;45067;44.654;20.200;2023-07-02T08:40:19;13.55;;;7.93;;
59294;SDS011;45067;44.654;20.200;2023-07-02T08:42:45;10.90;;;7.70;;
59294;SDS011;45067;44.654;20.200;2023-07-02T08:45:15;10.00;;;7.38;;
59294;SDS011;45067;44.654;20.200;2023-07-02T08:47:42;9.77;;;7.18;;
59294;SDS011;45067;44.654;20.200;2023-07-02T08:53:12;8.30;;;6.18;;
59294;SDS011;45067;44.654;20.200;2023-07-02T08:55:38;9.50;;;6.45;;
59294;SDS011;45067;44.654;20.200;2023-07-02T08:58:05;9.35;;;6.47;;
59294;SDS011;45067;44.654;20.200;2023-07-02T09:00:31;10.10;;;6.82;;
59294;SDS011;45067;44.654;20.200;2023-07-02T09:03:12;10.30;;;6.80;;
59294;SDS011;45067;44.654;20.200;2023-07-02T09:05:52;10.15;;;7.45;;
59294;SDS011;45067;44.654;20.200;2023-07-02T09:08:22;8.98;;;6.90;;
59294;SDS011;45067;44.654;20.200;2023-07-02T09:10:49;8.45;;;6.70;;
59294;SDS011;45067;44.654;20.200;2023-07-02T09:13:15;10.60;;;6.55;;
59294;SDS011;45067;44.654;20.200;2023-07-02T09:15:41;9.85;;;6.43;;
59294;SDS011;45067;44.654;20.200;2023-07-02T09:18:18;9.05;;;6.28;;
59294;SDS011;45067;44.654;20.200;2023-07-02T09:20:44;11.00;;;6.93;;
59294;SDS011;45067;44.654;20.200;2023-07-02T09:23:12;9.35;;;6.57;;
59294;SDS011;45067;44.654;20.200;2023-07-02T09:25:40;10.63;;;7.53;;
59294;SDS011;45067;44.654;20.200;2023-07-02T09:28:16;8.52;;;7.10;;
59294;SDS011;45067;44.654;20.200;2023-07-02T09:30:52;7.97;;;6.38;;
59294;SDS011;45067;44.654;20.200;2023-07-02T09:33:20;10.05;;;7.22;;
59294;SDS011;45067;44.654;20.200;2023-07-02T09:35:48;9.93;;;6.97;;
59294;SDS011;45067;44.654;20.200;2023-07-02T09:38:15;9.65;;;7.55;;
59294;SDS011;45067;44.654;20.200;2023-07-02T09:40:45;10.40;;;8.05;;
59294;SDS011;45067;44.654;20.200;2023-07-02T09:43:13;12.75;;;9.20;;
59294;SDS011;45067;44.654;20.200;2023-07-02T09:45:44;13.25;;;9.77;;
59294;SDS011;45067;44.654;20.200;2023-07-02T09:48:12;13.32;;;9.93;;
59294;SDS011;45067;44.654;20.200;2023-07-02T09:50:40;14.63;;;10.00;;
59294;SDS011;45067;44.654;20.200;2023-07-02T09:53:06;14.40;;;9.32;;
59294;SDS011;45067;44.654;20.200;2023-07-02T09:55:33;11.88;;;8.02;;
59294;SDS011;45067;44.654;20.200;2023-07-02T09:58:00;14.75;;;8.85;;
59294;SDS011;45067;44.654;20.200;2023-07-02T10:00:26;12.55;;;8.60;;
59294;SDS011;45067;44.654;20.200;2023-07-02T10:02:53;10.63;;;7.57;;
59294;SDS011;45067;44.654;20.200;2023-07-02T10:08:22;15.52;;;8.52;;
59294;SDS011;45067;44.654;20.200;2023-07-02T10:10:55;16.15;;;10.10;;
59294;SDS011;45067;44.654;20.200;2023-07-02T10:13:31;12.43;;;9.10;;
59294;SDS011;45067;44.654;20.200;2023-07-02T10:16:04;10.52;;;8.15;;
59294;SDS011;45067;44.654;20.200;2023-07-02T10:18:30;11.93;;;8.30;;
59294;SDS011;45067;44.654;20.200;2023-07-02T10:20:57;12.73;;;8.10;;
59294;SDS011;45067;44.654;20.200;2023-07-02T10:23:35;10.82;;;7.70;;
59294;SDS011;45067;44.654;20.200;2023-07-02T10:28:37;9.45;;;6.68;;
59294;SDS011;45067;44.654;20.200;2023-07-02T10:31:04;10.63;;;6.80;;
59294;SDS011;45067;44.654;20.200;2023-07-02T10:33:30;10.10;;;7.28;;
59294;SDS011;45067;44.654;20.200;2023-07-02T10:35:56;9.10;;;6.80;;
59294;SDS011;45067;44.654;20.200;2023-07-02T10:38:23;9.55;;;7.00;;
59294;SDS011;45067;44.654;20.200;2023-07-02T10:40:56;8.77;;;6.38;;
59294;SDS011;45067;44.654;20.200;2023-07-02T10:43:29;13.15;;;6.85;;
59294;SDS011;45067;44.654;20.200;2023-07-02T10:45:55;9.65;;;6.75;;
59294;SDS011;45067;44.654;20.200;2023-07-02T10:48:22;8.18;;;6.38;;
59294;SDS011;45067;44.654;20.200;2023-07-02T10:56:58;8.73;;;6.60;;
59294;SDS011;45067;44.654;20.200;2023-07-02T10:59:24;11.55;;;7.28;;
59294;SDS011;45067;44.654;20.200;2023-07-02T11:01:50;9.50;;;7.28;;
59294;SDS011;45067;44.654;20.200;2023-07-02T11:04:17;10.00;;;7.32;;
59294;SDS011;45067;44.654;20.200;2023-07-02T11:06:43;9.82;;;7.47;;
59294;SDS011;45067;44.654;20.200;2023-07-02T11:09:18;9.57;;;7.53;;
59294;SDS011;45067;44.654;20.200;2023-07-02T11:11:53;10.02;;;7.40;;
59294;SDS011;45067;44.654;20.200;2023-07-02T11:14:26;10.30;;;7.70;;
59294;SDS011;45067;44.654;20.200;2023-07-02T11:16:55;12.25;;;8.25;;
59294;SDS011;45067;44.654;20.200;2023-07-02T11:19:21;11.95;;;7.68;;
59294;SDS011;45067;44.654;20.200;2023-07-02T11:21:54;10.45;;;7.90;;
59294;SDS011;45067;44.654;20.200;2023-07-02T11:24:33;10.05;;;7.40;;
59294;SDS011;45067;44.654;20.200;2023-07-02T11:27:03;9.18;;;7.30;;
59294;SDS011;45067;44.654;20.200;2023-07-02T11:29:33;11.88;;;8.40;;
59294;SDS011;45067;44.654;20.200;2023-07-02T11:32:09;11.18;;;7.28;;
59294;SDS011;45067;44.654;20.200;2023-07-02T11:34:35;9.98;;;7.38;;
59294;SDS011;45067;44.654;20.200;2023-07-02T11:37:03;11.30;;;7.70;;
59294;SDS011;45067;44.654;20.200;2023-07-02T11:39:29;10.50;;;7.75;;
59294;SDS011;45067;44.654;20.200;2023-07-02T11:41:55;11.18;;;8.07;;
59294;SDS011;45067;44.654;20.200;2023-07-02T11:44:21;11.13;;;8.45;;
59294;SDS011;45067;44.654;20.200;2023-07-02T11:46:53;12.25;;;7.68;;
59294;SDS011;45067;44.654;20.200;2023-07-02T11:49:22;10.00;;;8.30;;
59294;SDS011;45067;44.654;20.200;2023-07-02T11:52:35;12.40;;;8.52;;
59294;SDS011;45067;44.654;20.200;2023-07-02T11:55:01;11.25;;;8.13;;
59294;SDS011;45067;44.654;20.200;2023-07-02T11:57:27;11.77;;;8.23;;
59294;SDS011;45067;44.654;20.200;2023-07-02T11:59:53;8.55;;;7.60;;
59294;SDS011;45067;44.654;20.200;2023-07-02T12:02:19;10.35;;;8.15;;
59294;SDS011;45067;44.654;20.200;2023-07-02T12:04:45;9.95;;;7.88;;
59294;SDS011;45067;44.654;20.200;2023-07-02T12:07:11;10.85;;;8.13;;
59294;SDS011;45067;44.654;20.200;2023-07-02T12:09:38;16.65;;;7.47;;
59294;SDS011;45067;44.654;20.200;2023-07-02T12:12:04;9.43;;;7.10;;
59294;SDS011;45067;44.654;20.200;2023-07-02T12:14:30;16.58;;;8.13;;
59294;SDS011;45067;44.654;20.200;2023-07-02T12:16:56;17.48;;;7.90;;
59294;SDS011;45067;44.654;20.200;2023-07-02T12:19:41;13.40;;;7.30;;
59294;SDS011;45067;44.654;20.200;2023-07-02T12:22:07;9.13;;;7.30;;
59294;SDS011;45067;44.654;20.200;2023-07-02T12:24:33;13.73;;;7.90;;
59294;SDS011;45067;44.654;20.200;2023-07-02T12:26:59;10.15;;;7.50;;
59294;SDS011;45067;44.654;20.200;2023-07-02T12:29:29;11.25;;;8.07;;
59294;SDS011;45067;44.654;20.200;2023-07-02T12:31:55;10.95;;;6.93;;
59294;SDS011;45067;44.654;20.200;2023-07-02T12:34:21;9.82;;;7.18;;
59294;SDS011;45067;44.654;20.200;2023-07-02T12:36:47;9.60;;;6.78;;
59294;SDS011;45067;44.654;20.200;2023-07-02T12:39:13;12.52;;;7.90;;
59294;SDS011;45067;44.654;20.200;2023-07-02T12:41:39;10.95;;;7.60;;
59294;SDS011;45067;44.654;20.200;2023-07-02T12:44:05;8.80;;;7.40;;
59294;SDS011;45067;44.654;20.200;2023-07-02T12:46:31;10.05;;;7.90;;
59294;SDS011;45067;44.654;20.200;2023-07-02T12:48:57;11.00;;;7.88;;
59294;SDS011;45067;44.654;20.200;2023-07-02T12:51:23;9.32;;;8.20;;
59294;SDS011;45067;44.654;20.200;2023-07-02T12:53:49;12.48;;;8.75;;
59294;SDS011;45067;44.654;20.200;2023-07-02T12:56:16;10.30;;;8.07;;
59294;SDS011;45067;44.654;20.200;2023-07-02T12:58:42;9.85;;;7.13;;
59294;SDS011;45067;44.654;20.200;2023-07-02T13:01:08;10.00;;;7.50;;
59294;SDS011;45067;44.654;20.200;2023-07-02T13:03:34;10.10;;;7.85;;
59294;SDS011;45067;44.654;20.200;2023-07-02T13:06:00;12.25;;;8.30;;
59294;SDS011;45067;44.654;20.200;2023-07-02T13:08:26;13.55;;;7.60;;
59294;SDS011;45067;44.654;20.200;2023-07-02T13:10:52;9.60;;;7.80;;
59294;SDS011;45067;44.654;20.200;2023-07-02T13:13:18;11.55;;;8.35;;
59294;SDS011;45067;44.654;20.200;2023-07-02T13:15:44;12.70;;;7.90;;
59294;SDS011;45067;44.654;20.200;2023-07-02T13:18:10;9.77;;;7.93;;
59294;SDS011;45067;44.654;20.200;2023-07-02T13:20:36;12.70;;;8.68;;
59294;SDS011;45067;44.654;20.200;2023-07-02T13:23:03;11.45;;;8.25;;
59294;SDS011;45067;44.654;20.200;2023-07-02T13:25:29;11.90;;;8.60;;
59294;SDS011;45067;44.654;20.200;2023-07-02T13:27:55;11.07;;;8.52;;
59294;SDS011;45067;44.654;20.200;2023-07-02T13:30:21;14.77;;;8.98;;
59294;SDS011;45067;44.654;20.200;2023-07-02T13:32:47;15.00;;;9.98;;
59294;SDS011;45067;44.654;20.200;2023-07-02T13:35:13;13.73;;;8.20;;
59294;SDS011;45067;44.654;20.200;2023-07-02T13:37:39;15.75;;;8.82;;
59294;SDS011;45067;44.654;20.200;2023-07-02T13:40:06;10.60;;;7.72;;
59294;SDS011;45067;44.654;20.200;2023-07-02T13:42:33;9.98;;;8.27;;
59294;SDS011;45067;44.654;20.200;2023-07-02T13:45:00;16.85;;;9.70;;
59294;SDS011;45067;44.654;20.200;2023-07-02T13:47:26;22.38;;;10.35;;
59294;SDS011;45067;44.654;20.200;2023-07-02T13:49:53;13.48;;;9.73;;
59294;SDS011;45067;44.654;20.200;2023-07-02T13:52:19;10.57;;;8.27;;
59294;SDS011;45067;44.654;20.200;2023-07-02T13:54:46;12.15;;;8.52;;
59294;SDS011;45067;44.654;20.200;2023-07-02T13:57:12;12.23;;;7.70;;
59294;SDS011;45067;44.654;20.200;2023-07-02T13:59:38;12.85;;;8.88;;
59294;SDS011;45067;44.654;20.200;2023-07-02T14:02:05;10.02;;;7.43;;
59294;SDS011;45067;44.654;20.200;2023-07-02T14:04:31;11.52;;;8.10;;
59294;SDS011;45067;44.654;20.200;2023-07-02T14:06:57;14.90;;;8.32;;
59294;SDS011;45067;44.654;20.200;2023-07-02T14:09:23;12.95;;;9.07;;
59294;SDS011;45067;44.654;20.200;2023-07-02T14:11:49;13.45;;;8.40;;
59294;SDS011;45067;44.654;20.200;2023-07-02T14:14:15;11.95;;;9.30;;
59294;SDS011;45067;44.654;20.200;2023-07-02T14:16:41;11.05;;;8.65;;
59294;SDS011;45067;44.654;20.200;2023-07-02T14:19:08;11.52;;;8.65;;
59294;SDS011;45067;44.654;20.200;2023-07-02T14:21:34;10.48;;;8.25;;
59294;SDS011;45067;44.654;20.200;2023-07-02T14:24:00;13.25;;;9.23;;
59294;SDS011;45067;44.654;20.200;2023-07-02T14:26:26;12.10;;;8.90;;
59294;SDS011;45067;44.654;20.200;2023-07-02T14:28:52;13.10;;;9.20;;
59294;SDS011;45067;44.654;20.200;2023-07-02T14:31:18;11.45;;;9.15;;
59294;SDS011;45067;44.654;20.200;2023-07-02T14:33:44;11.85;;;8.50;;
59294;SDS011;45067;44.654;20.200;2023-07-02T14:36:11;11.15;;;8.20;;
59294;SDS011;45067;44.654;20.200;2023-07-02T14:38:37;11.02;;;8.20;;
59294;SDS011;45067;44.654;20.200;2023-07-02T14:41:03;11.18;;;8.30;;
59294;SDS011;45067;44.654;20.200;2023-07-02T14:43:29;12.35;;;8.88;;
59294;SDS011;45067;44.654;20.200;2023-07-02T14:45:57;12.82;;;8.82;;
59294;SDS011;45067;44.654;20.200;2023-07-02T14:48:23;15.20;;;8.52;;
59294;SDS011;45067;44.654;20.200;2023-07-02T14:50:50;9.68;;;8.05;;
59294;SDS011;45067;44.654;20.200;2023-07-02T14:53:17;11.55;;;8.75;;
59294;SDS011;45067;44.654;20.200;2023-07-02T14:55:43;15.07;;;8.63;;
59294;SDS011;45067;44.654;20.200;2023-07-02T14:58:13;11.10;;;8.35;;
59294;SDS011;45067;44.654;20.200;2023-07-02T15:00:45;10.13;;;7.75;;
59294;SDS011;45067;44.654;20.200;2023-07-02T15:03:12;12.45;;;8.13;;
59294;SDS011;45067;44.654;20.200;2023-07-02T15:05:38;13.07;;;8.73;;
59294;SDS011;45067;44.654;20.200;2023-07-02T15:08:05;11.90;;;8.27;;
59294;SDS011;45067;44.654;20.200;2023-07-02T15:10:31;12.27;;;9.05;;
59294;SDS011;45067;44.654;20.200;2023-07-02T15:12:57;14.55;;;9.50;;
59294;SDS011;45067;44.654;20.200;2023-07-02T15:15:23;11.73;;;9.80;;
59294;SDS011;45067;44.654;20.200;2023-07-02T15:17:49;11.40;;;8.52;;
59294;SDS011;45067;44.654;20.200;2023-07-02T15:20:15;13.27;;;9.25;;
59294;SDS011;45067;44.654;20.200;2023-07-02T15:22:41;13.68;;;9.13;;
59294;SDS011;45067;44.654;20.200;2023-07-02T15:25:07;12.52;;;9.20;;
59294;SDS011;45067;44.654;20.200;2023-07-02T15:27:33;14.02;;;9.77;;
59294;SDS011;45067;44.654;20.200;2023-07-02T15:30:00;14.68;;;9.82;;
59294;SDS011;45067;44.654;20.200;2023-07-02T15:32:26;13.73;;;9.52;;
59294;SDS011;45067;44.654;20.200;2023-07-02T15:34:52;12.60;;;8.70;;
59294;SDS011;45067;44.654;20.200;2023-07-02T15:37:18;13.98;;;9.15;;
59294;SDS011;45067;44.654;20.200;2023-07-02T15:39:44;14.15;;;8.90;;
59294;SDS011;45067;44.654;20.200;2023-07-02T15:42:10;12.32;;;9.55;;
59294;SDS011;45067;44.654;20.200;2023-07-02T15:44:36;14.23;;;8.68;;
59294;SDS011;45067;44.654;20.200;2023-07-02T15:47:02;10.30;;;8.82;;
59294;SDS011;45067;44.654;20.200;2023-07-02T15:49:29;13.32;;;8.90;;